Terminal Aerodrome Forecast
Issued by NWS

Home | Current Version | Previous Version | Text Only | Print | Product List | Glossary On
Versions: 1 2 3 4 5 6 7 8 9 10 11 12 13 14
000
FTUS44 KLIX 022321
TAFMSY
TAF
KMSY 022321Z 0300/0324 17006KT P6SM FEW030 SCT110 BKN250
     FM030130 14005KT P6SM BKN250
     FM031430 14007KT P6SM BKN045 PROB30 0318/0322 4SM -TSRA
      BKN030CB=

USA.gov is the U.S. government's official web portal to all federal, state and local government web resources and services.